หน้าหลัก
METAR-TAF:

METAR-TAF

ท่าอากาศยาน :

Halmstad, สวีเดน

ละติจูด: 56-41N, ลองจิจูด: 012-50E, ความสูง: 30 ม.

การสังเกตสภาพอากาศปัจจุบัน

รายงานได้ทำขึ้นเมื่อ 17 นาทีที่แล้ว ณ เวลา 03:20 UTC
ลม 7 นอตจากตะวันตก/ตะวันตกเฉียงเหนือ
อุณหภูมิ 16°C
ความชื้น 94%
ความกดอากาศ 1012 hPa
ทัศนวิสัย 10 กม. หรือมากกว่า

METAR: ESMT 250320Z AUTO 29007KT 9999 FEW011/// BKN041/// 16/15 Q1012 RESHUP REDZ

เวลา: 05:37 (03:37 UTC)

การพยากรณ์

รายงานได้ทำขึ้นเมื่อ 16 ชั่วโมงและ 26 นาทีที่แล้ว ณ เวลา 11:11 UTC
การพยากรณ์มีผลตั้งแต่วันที่ 24 ณ เวลา 12 UTC จนถึงวันที่ 24 ณ เวลา 15 UTC
ลม 12 นอตจากตะวันตก
ทัศนวิสัย 10 กม. หรือมากกว่า
มีเมฆกระจายเป็นบางส่วนที่ความสูง 2000 ฟุต
ชั่วคราว
ตั้งแต่วันที่ 24 ณ เวลา 12 UTC จนถึงวันที่ 24 ณ เวลา 15 UTC
มีเมฆกระจายเป็นบางส่วนที่ความสูง 2000 ฟุต, คิวมูโลนิมบัส.

TAF: ESMT 241111Z 2412/2415 27012KT 9999 SCT020 TEMPO 2412/2415 SCT020CB

สังเกตการณ์สภาพอากาศและพยากรณ์อากาศของสนามบินมากกว่า 4000 แห่ง (รายงาน METAR และ TAF).

สถานีที่ดูได้จะแสดงไว้ด้วยจุดสีเหลืองและสีแดงบนแผนที่.

เลื่อนเมาส์ไปเหนือจุดเพื่อดูชื่อสถานี.

แล้วคลิกเพื่อดูสังเกตการณ์และการพยากรณ์สภาพอากาศ.

ในการเปลี่ยนแผนที่: คลิกที่ปุ่มสีเขียวที่มีกากบาทสีดำเพื่อซูมเข้า; ที่ปุ่มสีเขียวที่มีขีดเพื่อซูมออก; หรือที่ลูกศรสีเขียวเพื่อไปยังแผนที่ที่อยู่ติดกัน.


METAR-TAF: